Time;durP1;ratioP1;P1;durP2;ratioP2;P2;SDS_P1;SDS_P2;PMS_P1;PMS_P2;Temp;Humidity;BMP_temperature;BMP_pressure;BME280_temperature;BME280_humidity;BME280_pressure;Samples;Min_cycle;Max_cycle;Signal;HPM_P1;HPM_P2
2022/05/21 00:00:05;;;;;;;6.60;6.00;;;18.20;99.90;;;18.85;94.08;98258.25;5118567;28;20680;-59
2022/05/21 00:02:38;;;;;;;7.40;6.70;;;18.20;99.90;;;18.87;93.66;98261.78;5150513;28;20278;-62
2022/05/21 00:05:11;;;;;;;7.20;6.60;;;18.20;99.90;;;18.71;91.27;98264.69;5137516;28;20233;-61
2022/05/21 00:07:45;;;;;;;7.28;6.57;;;18.10;99.90;;;18.67;92.72;98268.03;5134767;28;20236;-62
2022/05/21 00:10:21;;;;;;;7.20;6.53;;;18.00;99.90;;;18.73;94.10;98272.53;5118816;28;20232;-61
2022/05/21 00:12:55;;;;;;;6.75;6.15;;;18.10;99.90;;;18.69;92.82;98269.84;5120903;28;20338;-60
2022/05/21 00:15:33;;;;;;;7.53;6.13;;;18.00;99.90;;;18.69;92.12;98271.56;5120104;28;20736;-62
2022/05/21 00:18:06;;;;;;;6.15;5.55;;;18.00;99.90;;;18.69;93.32;98276.75;5121074;28;20243;-61
2022/05/21 00:20:49;;;;;;;6.13;5.63;;;18.00;99.90;;;18.62;93.14;98272.19;5122149;28;20254;-61
2022/05/21 00:23:26;;;;;;;6.32;5.72;;;18.00;99.90;;;18.57;92.52;98279.81;5150505;28;20232;-61
2022/05/21 00:26:02;;;;;;;7.25;6.03;;;17.90;99.90;;;18.49;92.06;98278.69;5122592;28;20254;-61
2022/05/21 00:28:39;;;;;;;6.88;6.20;;;17.80;99.90;;;18.54;90.69;98284.00;5125522;28;20272;-61
2022/05/21 00:31:16;;;;;;;6.13;5.63;;;17.80;99.90;;;18.38;91.56;98288.69;5117965;28;20205;-58
2022/05/21 00:33:50;;;;;;;5.95;5.45;;;17.80;99.90;;;18.40;92.29;98289.63;5113666;28;20204;-60
2022/05/21 00:36:23;;;;;;;6.03;5.47;;;17.80;99.90;;;18.40;93.07;98287.03;5125272;28;20307;-60
2022/05/21 00:38:57;;;;;;;6.30;5.80;;;17.80;99.90;;;18.42;91.61;98292.25;5121640;28;20287;-62
2022/05/21 00:41:30;;;;;;;7.68;5.88;;;17.80;99.90;;;18.42;90.54;98287.94;5127463;28;20205;-61
2022/05/21 00:44:07;;;;;;;5.90;5.40;;;17.80;99.90;;;18.36;91.07;98295.50;5122503;28;20511;-62
2022/05/21 00:46:43;;;;;;;6.43;5.82;;;17.80;99.90;;;18.35;91.28;98301.53;5129000;28;20655;-62
2022/05/21 00:49:21;;;;;;;5.97;5.45;;;17.70;99.90;;;18.27;90.98;98310.72;5122366;28;20206;-60
2022/05/21 00:52:00;;;;;;;6.45;5.95;;;17.60;99.90;;;18.28;92.81;98309.00;5138654;28;20208;-61
2022/05/21 00:54:37;;;;;;;6.15;5.63;;;17.70;99.90;;;18.38;89.99;98304.22;5143947;28;20244;-59
2022/05/21 00:57:15;;;;;;;5.88;5.28;;;17.70;99.90;;;18.25;90.31;98312.38;5119610;28;20231;-61
2022/05/21 00:59:53;;;;;;;6.05;5.18;;;17.70;99.90;;;18.19;89.15;98320.81;5117411;28;20285;-62
2022/05/21 01:02:32;;;;;;;5.82;5.20;;;17.60;99.90;;;18.24;88.83;98323.56;5150163;28;20255;-62
2022/05/21 01:05:11;;;;;;;5.38;4.97;;;17.60;99.90;;;18.23;86.61;98321.81;5140870;28;20200;-61
2022/05/21 01:07:47;;;;;;;5.47;4.90;;;17.60;99.90;;;18.30;84.35;98328.94;5129690;28;20241;-62
2022/05/21 01:10:23;;;;;;;5.22;4.30;;;17.60;99.90;;;18.17;84.33;98330.25;5135685;28;20212;-61
2022/05/21 01:12:58;;;;;;;4.65;4.15;;;17.60;99.90;;;18.07;85.32;98329.88;5150036;28;20255;-62
2022/05/21 01:15:38;;;;;;;3.97;3.60;;;17.40;99.90;;;18.07;84.81;98325.56;5157644;28;20228;-61
2022/05/21 01:18:11;;;;;;;4.63;4.18;;;17.40;99.90;;;17.92;85.17;98336.25;5132491;28;20707;-58
2022/05/21 01:20:48;;;;;;;4.63;4.13;;;17.30;99.90;;;17.89;85.83;98336.16;5122359;28;20224;-62
2022/05/21 01:23:23;;;;;;;6.18;4.72;;;17.30;99.90;;;17.87;86.65;98348.13;5137482;28;20205;-61
2022/05/21 01:25:59;;;;;;;4.93;4.53;;;17.30;99.90;;;17.88;86.79;98349.00;5142542;28;20220;-61
2022/05/21 01:28:34;;;;;;;4.90;4.40;;;17.20;99.90;;;17.94;84.91;98339.78;5134363;28;20955;-61
2022/05/21 01:31:07;;;;;;;5.22;4.72;;;17.30;99.90;;;17.96;85.37;98356.22;5148810;28;20270;-62
2022/05/21 01:33:45;;;;;;;5.35;4.95;;;17.30;99.90;;;17.81;87.64;98345.34;5117681;28;20201;-62
2022/05/21 01:36:18;;;;;;;5.65;5.18;;;17.20;99.90;;;17.73;87.18;98351.91;5140615;28;20228;-61
2022/05/21 01:38:52;;;;;;;5.03;4.63;;;17.10;99.90;;;17.69;87.27;98357.78;5126508;28;20225;-61
2022/05/21 01:41:26;;;;;;;5.85;5.35;;;17.10;99.90;;;17.61;87.95;98360.06;5127411;28;20694;-59
2022/05/21 01:46:50;;;;;;;6.32;5.20;;;16.90;99.90;;;17.58;89.39;98370.31;5125040;28;20255;-61
2022/05/21 01:49:23;;;;;;;5.45;4.90;;;16.90;99.90;;;17.67;88.03;98360.31;5128792;28;20252;-61
2022/05/21 01:51:56;;;;;;;5.40;4.90;;;16.90;99.90;;;17.60;88.02;98370.34;5125497;28;20232;-61
2022/05/21 01:54:32;;;;;;;5.35;4.93;;;16.90;99.90;;;17.61;89.81;98374.72;5133682;28;20224;-61
2022/05/21 01:57:07;;;;;;;5.53;5.13;;;16.90;99.90;;;17.64;88.98;98380.00;5120829;28;20224;-61
2022/05/21 01:59:40;;;;;;;5.72;5.30;;;16.90;99.90;;;17.61;89.54;98377.31;5126886;28;20278;-61
2022/05/21 02:02:14;;;;;;;6.20;5.70;;;16.90;99.90;;;17.52;88.83;98386.47;5139466;28;20270;-62
2022/05/21 02:04:47;;;;;;;5.57;5.15;;;16.80;99.90;;;17.47;88.06;98387.97;5125876;28;20240;-62
2022/05/21 02:07:20;;;;;;;6.00;5.60;;;16.80;99.90;;;17.53;88.20;98393.38;5142204;28;20259;-61
2022/05/21 02:09:54;;;;;;;5.93;5.43;;;16.80;99.90;;;17.46;87.51;98401.75;5126605;28;20623;-61
2022/05/21 02:12:28;;;;;;;5.68;5.25;;;16.80;99.90;;;17.41;87.33;98392.91;5131460;28;20943;-60
2022/05/21 02:15:01;;;;;;;5.72;5.30;;;16.80;99.90;;;17.44;86.85;98398.22;5130192;28;20299;-60
2022/05/21 02:17:34;;;;;;;4.78;4.38;;;16.80;99.90;;;17.48;86.58;98399.19;5120681;28;20270;-62
2022/05/21 02:20:09;;;;;;;5.03;4.72;;;16.80;99.90;;;17.47;84.98;98398.31;5114582;28;20259;-61
2022/05/21 02:22:42;;;;;;;4.93;4.63;;;16.70;99.90;;;17.43;85.17;98398.16;5132601;28;20687;-58
2022/05/21 02:25:17;;;;;;;5.38;4.88;;;16.70;99.90;;;17.40;84.98;98406.69;5157894;28;20685;-62
2022/05/21 02:27:50;;;;;;;5.28;4.75;;;16.70;99.90;;;17.45;84.58;98405.13;5180325;28;20255;-59
2022/05/21 02:30:24;;;;;;;4.95;4.55;;;16.70;99.90;;;17.34;85.27;98406.44;5122657;28;20208;-61
2022/05/21 02:32:57;;;;;;;4.90;4.50;;;16.60;99.90;;;17.30;84.88;98414.88;5143882;28;20201;-62
2022/05/21 02:35:30;;;;;;;4.88;4.57;;;16.60;99.90;;;17.26;84.50;98420.75;5122187;28;20228;-61
2022/05/21 02:40:56;;;;;;;5.10;4.70;;;16.50;99.90;;;17.11;84.62;98424.50;5128639;28;20618;-61
2022/05/21 02:43:29;;;;;;;4.78;4.38;;;16.40;99.90;;;17.16;84.15;98423.78;5119493;28;20277;-61
2022/05/21 02:46:02;;;;;;;5.03;4.60;;;16.50;99.90;;;17.10;84.48;98440.78;5119416;28;20216;-62
2022/05/21 02:48:36;;;;;;;5.13;4.72;;;16.50;99.90;;;17.14;84.76;98434.06;5122784;28;20219;-62
2022/05/21 02:51:11;;;;;;;5.60;5.10;;;16.50;99.90;;;17.19;84.35;98447.16;5122417;28;20204;-61
2022/05/21 02:53:44;;;;;;;4.80;4.50;;;16.50;99.90;;;17.09;84.92;98441.63;5118604;28;20196;-62
2022/05/21 02:56:19;;;;;;;5.03;4.63;;;16.50;99.90;;;17.19;82.79;98436.81;5116810;28;20225;-62
2022/05/21 02:58:52;;;;;;;4.88;4.57;;;16.50;99.90;;;17.16;81.06;98432.41;5134829;28;20220;-61
2022/05/21 03:01:25;;;;;;;5.00;4.28;;;16.40;99.90;;;17.10;81.56;98443.38;5119779;28;20611;-61
2022/05/21 03:03:59;;;;;;;5.32;4.82;;;16.40;99.90;;;17.14;81.00;98430.56;5121724;28;20197;-61
2022/05/21 03:06:32;;;;;;;4.65;4.25;;;16.40;99.90;;;17.11;79.66;98442.56;5120651;28;20297;-62
2022/05/21 03:11:57;;;;;;;5.07;4.57;;;16.30;99.90;;;16.97;79.48;98461.78;5117919;28;20285;-61
2022/05/21 03:14:30;;;;;;;5.43;5.03;;;16.30;99.90;;;16.93;79.25;98459.88;5122245;28;20205;-61
2022/05/21 03:17:05;;;;;;;4.60;4.30;;;16.30;99.90;;;16.81;81.01;98464.53;5117736;28;20228;-61
2022/05/21 03:19:39;;;;;;;5.13;4.72;;;16.20;99.90;;;16.89;80.64;98452.84;5119693;28;20232;-61
2022/05/21 03:22:12;;;;;;;4.80;4.40;;;16.30;99.90;;;16.91;79.96;98460.63;5118163;28;20251;-60
2022/05/21 03:24:46;;;;;;;4.90;4.55;;;16.20;99.90;;;16.79;80.45;98473.91;5115294;29;21064;-60
2022/05/21 03:27:20;;;;;;;4.60;4.20;;;16.20;99.90;;;16.77;81.08;98475.53;5118081;28;20704;-60
2022/05/21 03:29:53;;;;;;;4.75;4.43;;;16.20;99.90;;;16.73;81.70;98471.91;5188090;28;20660;-61
2022/05/21 03:32:26;;;;;;;5.13;4.72;;;16.10;99.90;;;16.74;81.05;98478.88;5148545;28;20210;-61
2022/05/21 03:34:59;;;;;;;4.43;4.13;;;16.10;99.90;;;16.72;79.96;98484.78;5133208;28;20649;-60
2022/05/21 03:37:33;;;;;;;4.75;4.28;;;16.00;99.90;;;16.65;80.17;98488.78;5175937;28;20692;-61
2022/05/21 03:40:11;;;;;;;4.80;4.22;;;16.00;99.90;;;16.66;81.52;98496.59;5162613;28;20278;-61
2022/05/21 03:42:45;;;;;;;4.75;4.30;;;16.00;99.90;;;16.51;80.84;98490.78;5154846;28;20292;-61
2022/05/21 03:45:19;;;;;;;4.95;4.55;;;15.90;99.90;;;16.58;81.53;98492.78;5176627;28;20205;-61
2022/05/21 03:47:53;;;;;;;4.72;4.43;;;15.90;99.90;;;16.58;81.66;98497.94;5164643;28;20220;-61
2022/05/21 03:50:31;;;;;;;5.40;4.60;;;15.90;99.90;;;16.53;81.46;98496.88;5129616;28;20201;-61
2022/05/21 03:53:04;;;;;;;4.30;4.00;;;15.90;99.90;;;16.47;81.08;98501.75;5117738;28;20250;-61
2022/05/21 03:55:38;;;;;;;4.43;4.03;;;15.80;99.90;;;16.43;80.93;98503.34;5110870;28;20243;-61
2022/05/21 03:58:15;;;;;;;5.07;4.68;;;15.70;99.90;;;16.42;83.91;98511.00;5171249;28;20243;-58
2022/05/21 04:00:48;;;;;;;4.97;4.57;;;15.80;99.90;;;16.31;80.32;98507.03;5118730;28;20687;-61
2022/05/21 04:03:22;;;;;;;5.10;4.57;;;15.60;99.90;;;16.32;80.38;98508.84;5117121;29;20212;-61
2022/05/21 04:05:56;;;;;;;5.10;4.65;;;15.60;99.90;;;16.29;79.91;98508.69;5118665;28;20637;-60
2022/05/21 04:08:29;;;;;;;6.78;4.78;;;15.60;99.90;;;16.37;78.58;98517.66;5129643;28;20266;-61
2022/05/21 04:11:02;;;;;;;4.47;4.07;;;15.50;99.90;;;16.32;80.20;98524.31;5132230;28;20247;-60
2022/05/21 04:13:37;;;;;;;4.88;4.47;;;15.60;99.90;;;16.28;80.57;98522.38;5121467;28;20707;-59
2022/05/21 04:16:10;;;;;;;5.05;4.65;;;15.60;99.90;;;16.17;80.61;98532.25;5111556;28;20260;-61
2022/05/21 04:18:43;;;;;;;5.72;5.32;;;15.50;99.90;;;16.23;78.21;98531.66;5105330;28;20212;-59
2022/05/21 04:21:16;;;;;;;4.85;4.43;;;15.50;99.90;;;16.14;78.80;98535.56;5114046;28;20232;-61
2022/05/21 04:23:49;;;;;;;4.80;4.40;;;15.40;99.90;;;16.07;78.74;98538.66;5119705;28;20208;-61
2022/05/21 04:26:23;;;;;;;4.90;4.55;;;15.30;99.90;;;16.00;79.67;98541.78;5116454;28;20646;-61
2022/05/21 04:28:58;;;;;;;5.28;4.82;;;15.30;99.90;;;15.99;79.35;98540.91;5114945;28;20211;-61
2022/05/21 04:31:31;;;;;;;4.47;4.07;;;15.30;99.90;;;16.00;80.31;98534.03;5115683;29;20254;-59
2022/05/21 04:34:05;;;;;;;6.00;5.55;;;15.30;99.90;;;15.77;78.78;98538.13;5112160;28;20750;-61
2022/05/21 04:36:39;;;;;;;4.90;4.55;;;15.10;99.90;;;15.86;78.99;98532.50;5150079;28;20212;-57
2022/05/21 04:39:12;;;;;;;5.40;4.90;;;15.10;99.90;;;15.85;79.08;98539.38;5119281;28;20634;-61
2022/05/21 04:41:45;;;;;;;5.55;5.05;;;15.20;99.90;;;15.94;80.01;98532.06;5110951;29;20240;-60
2022/05/21 04:44:20;;;;;;;6.15;5.32;;;15.20;99.90;;;15.94;78.78;98541.50;5118961;28;20201;-61
2022/05/21 04:46:53;;;;;;;5.88;5.47;;;15.20;99.90;;;15.95;79.18;98538.09;5116614;28;20677;-61
2022/05/21 04:49:26;;;;;;;5.55;5.07;;;15.20;99.90;;;15.99;79.20;98534.84;5116581;28;20196;-61
2022/05/21 04:52:01;;;;;;;6.30;5.70;;;15.20;99.90;;;15.98;79.22;98553.69;5118700;28;20240;-61
2022/05/21 04:54:37;;;;;;;6.03;5.47;;;15.20;99.90;;;16.09;78.40;98542.19;5111374;28;20204;-59
2022/05/21 04:57:10;;;;;;;5.57;5.15;;;15.20;99.90;;;16.15;77.24;98541.59;5121577;28;20254;-59
2022/05/21 04:59:46;;;;;;;6.18;5.55;;;15.30;99.90;;;16.27;77.02;98541.28;5117624;28;20303;-61
2022/05/21 05:02:25;;;;;;;5.93;5.38;;;15.40;99.90;;;16.38;77.42;98552.97;5114760;29;20292;-60
2022/05/21 05:04:58;;;;;;;6.35;5.75;;;15.50;99.90;;;16.32;76.86;98550.13;5117132;28;20201;-61
2022/05/21 05:07:34;;;;;;;6.55;5.95;;;15.60;99.90;;;16.42;75.98;98557.44;5166815;28;21177;-60
2022/05/21 05:10:08;;;;;;;6.70;6.10;;;15.60;99.90;;;16.55;74.88;98554.59;5119203;28;20660;-56
2022/05/21 05:12:41;;;;;;;5.68;5.28;;;15.70;99.90;;;16.58;75.56;98557.31;5135143;28;20287;-58
2022/05/21 05:15:16;;;;;;;6.57;5.95;;;15.70;99.90;;;16.69;75.44;98562.09;5118902;28;20243;-56
2022/05/21 05:17:49;;;;;;;6.60;6.00;;;15.90;99.90;;;16.84;74.46;98558.50;5113799;28;20253;-53
2022/05/21 05:20:22;;;;;;;6.90;6.10;;;16.10;99.90;;;17.10;73.46;98556.16;5110558;28;20299;-55
2022/05/21 05:22:56;;;;;;;6.03;5.53;;;16.30;99.90;;;17.38;72.50;98558.19;5121645;28;20296;-52
2022/05/21 05:25:29;;;;;;;6.50;6.00;;;16.50;99.90;;;17.27;71.24;98565.50;5133221;28;20228;-58
2022/05/21 05:28:03;;;;;;;6.25;5.75;;;16.50;99.90;;;17.38;72.48;98568.53;5120062;28;20277;-52
2022/05/21 05:30:37;;;;;;;6.30;5.78;;;16.50;99.90;;;17.34;71.42;98566.66;5154426;28;20244;-55
2022/05/21 05:33:11;;;;;;;6.07;5.68;;;16.60;99.90;;;17.87;70.66;98575.75;5121447;29;20235;-54
2022/05/21 05:35:45;;;;;;;6.30;5.90;;;17.00;99.90;;;18.45;67.64;98572.78;5121103;28;20283;-53
2022/05/21 05:38:18;;;;;;;6.60;6.00;;;17.50;99.90;;;18.92;65.65;98569.34;5122423;28;20584;-56
2022/05/21 05:40:55;;;;;;;6.40;5.80;;;17.90;99.90;;;19.25;64.30;98569.63;5121966;28;20637;-51
2022/05/21 05:43:28;;;;;;;5.40;5.00;;;18.30;99.90;;;19.55;63.27;98567.19;5120585;28;20680;-54
2022/05/21 05:46:03;;;;;;;5.85;5.28;;;18.40;99.90;;;20.00;62.29;98569.53;5130495;28;20228;-55
2022/05/21 05:48:36;;;;;;;5.78;5.30;;;18.80;99.90;;;20.07;61.67;98566.28;5123135;28;20203;-61
2022/05/21 05:51:09;;;;;;;5.85;5.30;;;19.00;99.90;;;20.33;59.87;98566.22;5119006;28;20291;-56
2022/05/21 05:53:42;;;;;;;5.50;5.10;;;19.10;99.90;;;20.56;57.28;98567.78;5137109;28;20661;-60
2022/05/21 05:56:16;;;;;;;5.03;4.63;;;19.20;99.90;;;20.93;57.23;98563.63;5120547;28;20318;-56
2022/05/21 06:01:43;;;;;;;5.20;4.70;;;19.20;99.90;;;20.76;57.17;98570.09;5118652;28;20592;-58
2022/05/21 06:04:16;;;;;;;4.68;4.32;;;19.20;99.90;;;21.25;55.28;98568.81;5116331;28;20204;-52
2022/05/21 06:06:49;;;;;;;4.90;4.50;;;19.50;99.90;;;21.16;53.26;98561.66;5118179;28;20647;-54
2022/05/21 06:09:22;;;;;;;4.15;3.85;;;19.70;99.90;;;21.85;53.40;98560.81;5134975;28;20740;-52
2022/05/21 06:11:55;;;;;;;5.47;4.40;;;20.00;99.90;;;21.83;51.64;98562.47;5111356;28;20250;-59
2022/05/21 06:14:28;;;;;;;4.47;4.18;;;19.90;99.70;;;21.88;52.74;98558.28;5131822;28;20296;-54
2022/05/21 06:17:03;;;;;;;3.97;3.67;;;20.00;99.70;;;22.15;50.83;98564.94;5120898;28;20222;-53
2022/05/21 06:19:36;;;;;;;4.35;3.95;;;20.20;99.20;;;22.19;49.73;98566.81;5117250;28;20244;-61
2022/05/21 06:22:09;;;;;;;4.18;3.80;;;20.40;98.10;;;22.33;50.32;98569.75;5122454;28;20221;-61
2022/05/21 06:24:43;;;;;;;4.18;3.78;;;20.30;98.70;;;22.60;48.91;98569.44;5113366;28;20280;-59
2022/05/21 06:27:16;;;;;;;4.05;3.75;;;20.30;98.00;;;22.27;48.92;98573.09;5129004;28;20228;-57
2022/05/21 06:29:49;;;;;;;3.70;3.40;;;20.50;97.30;;;22.43;48.78;98571.69;5130400;28;20197;-58
2022/05/21 06:32:23;;;;;;;4.00;3.58;;;20.50;97.40;;;22.21;49.54;98572.97;5130265;28;20236;-55
2022/05/21 06:34:57;;;;;;;3.30;3.10;;;20.40;97.40;;;22.78;47.52;98568.91;5115383;28;20212;-54
2022/05/21 06:37:30;;;;;;;3.40;3.10;;;20.60;96.90;;;23.40;46.25;98566.66;5147376;28;20225;-59
2022/05/21 06:40:04;;;;;;;3.15;2.95;;;21.10;96.40;;;23.89;44.72;98567.47;5125320;28;20254;-55
2022/05/21 06:42:37;;;;;;;3.30;3.00;;;21.50;95.00;;;23.44;45.43;98572.81;5120537;28;20197;-55
2022/05/21 06:45:12;;;;;;;3.45;3.15;;;21.60;94.90;;;24.01;45.44;98578.16;5138144;28;20286;-54
2022/05/21 06:47:46;;;;;;;2.78;2.58;;;21.80;95.00;;;24.47;44.20;98564.88;5113888;28;20262;-55
2022/05/21 06:50:19;;;;;;;3.17;2.92;;;22.30;94.60;;;24.35;43.05;98568.19;5144158;28;20236;-56
2022/05/21 06:52:52;;;;;;;2.97;2.78;;;22.40;92.90;;;24.38;44.19;98567.31;5122090;28;20259;-58
2022/05/21 06:55:26;;;;;;;4.43;2.83;;;22.30;93.70;;;24.83;41.49;98572.28;5134434;28;20208;-55
2022/05/21 06:57:59;;;;;;;2.78;2.50;;;22.50;92.30;;;25.11;41.52;98563.00;5123893;28;20262;-59
2022/05/21 07:00:32;;;;;;;4.35;2.97;;;22.90;91.90;;;24.75;42.08;98558.22;5116688;28;21525;-55
2022/05/21 07:03:07;;;;;;;2.83;2.63;;;22.90;92.10;;;24.60;41.24;98561.56;5130566;28;20228;-57
2022/05/21 07:08:30;;;;;;;3.05;2.65;;;22.70;91.40;;;24.74;41.02;98566.94;5136494;28;20646;-53
2022/05/21 07:11:04;;;;;;;3.25;2.50;;;22.80;90.90;;;25.27;39.91;98555.38;5130781;28;20254;-60
2022/05/21 07:13:37;;;;;;;2.50;2.22;;;22.90;90.50;;;25.33;41.41;98558.91;5116213;28;20233;-59
2022/05/21 07:16:10;;;;;;;3.60;2.45;;;23.30;91.30;;;25.28;39.83;98557.97;5159880;28;20408;-55
2022/05/21 07:18:46;;;;;;;2.72;2.50;;;23.30;89.40;;;24.95;40.67;98561.09;5133296;28;20678;-57
2022/05/21 07:21:20;;;;;;;2.95;2.25;;;22.90;90.10;;;24.66;41.68;98559.00;5114873;28;20699;-58
2022/05/21 07:23:54;;;;;;;2.80;2.30;;;22.80;90.70;;;25.15;39.58;98559.63;5120700;28;20646;-58
2022/05/21 07:26:28;;;;;;;2.40;2.20;;;23.00;89.30;;;24.62;40.81;98562.47;5119583;28;20273;-59
2022/05/21 07:29:01;;;;;;;3.08;2.40;;;22.80;89.90;;;24.87;39.61;98562.75;5118916;28;20216;-59
2022/05/21 07:31:34;;;;;;;2.10;1.63;;;22.80;89.10;;;24.84;40.01;98554.84;5119582;28;20357;-57
2022/05/21 07:34:09;;;;;;;2.17;1.92;;;22.70;89.80;;;24.89;39.18;98553.16;5119947;28;20258;-54
2022/05/21 07:36:42;;;;;;;2.50;2.05;;;22.90;88.30;;;25.35;38.59;98566.75;5127811;28;20589;-55
2022/05/21 07:39:15;;;;;;;2.15;2.00;;;22.90;87.30;;;25.48;38.11;98562.53;5123213;28;20236;-53
2022/05/21 07:41:48;;;;;;;2.22;2.03;;;23.20;87.60;;;25.50;37.96;98566.91;5120455;28;20757;-57
2022/05/21 07:44:21;;;;;;;2.20;2.00;;;23.40;86.40;;;25.82;38.23;98559.34;5127225;28;20236;-55
2022/05/21 07:46:54;;;;;;;2.05;1.90;;;23.30;87.00;;;26.02;37.26;98550.75;5140928;28;20240;-56
2022/05/21 07:49:29;;;;;;;2.85;2.03;;;23.30;86.10;;;26.11;37.83;98539.47;5132604;28;20208;-57
2022/05/21 07:52:04;;;;;;;2.20;1.95;;;23.70;87.20;;;25.46;38.37;98540.69;5121331;28;20556;-59
2022/05/21 07:54:37;;;;;;;2.72;2.10;;;23.80;86.20;;;25.95;38.11;98521.00;5118242;28;20281;-57
2022/05/21 07:57:10;;;;;;;2.20;1.90;;;23.60;86.70;;;26.55;36.43;98525.72;5127456;28;20667;-55
2022/05/21 07:59:44;;;;;;;2.20;1.77;;;23.80;85.70;;;26.20;37.20;98524.66;5120861;28;20266;-56
2022/05/21 08:02:19;;;;;;;1.90;1.80;;;23.70;86.10;;;26.87;36.53;98524.09;5132300;28;20665;-56
2022/05/21 08:04:53;;;;;;;1.90;1.67;;;24.10;86.00;;;26.81;36.30;98531.94;5117815;28;20232;-55
2022/05/21 08:07:26;;;;;;;3.03;1.95;;;24.30;84.50;;;26.83;36.55;98524.94;5152942;28;20251;-56
2022/05/21 08:09:59;;;;;;;2.47;1.65;;;24.40;84.50;;;26.74;37.03;98523.16;5113911;28;20211;-61
2022/05/21 08:12:33;;;;;;;1.60;1.50;;;24.30;84.40;;;26.61;36.06;98515.25;5117559;28;20232;-57
2022/05/21 08:15:07;;;;;;;2.60;1.77;;;24.50;83.30;;;26.04;36.14;98515.84;5115105;28;20235;-60
2022/05/21 08:17:41;;;;;;;1.77;1.35;;;24.30;81.30;;;26.05;36.15;98520.22;5144989;28;20220;-61
2022/05/21 08:20:17;;;;;;;2.28;1.48;;;24.20;80.90;;;26.02;35.71;98525.44;5120400;28;20614;-58
2022/05/21 08:28:32;;;;;;;1.85;1.38;;;24.20;81.30;;;25.81;37.44;98530.47;5123528;28;20228;-56
2022/05/21 08:31:06;;;;;;;2.78;1.30;;;24.20;81.40;;;25.46;37.73;98527.59;5129982;28;20604;-58
2022/05/21 08:33:39;;;;;;;1.30;1.20;;;24.40;81.50;;;25.76;37.55;98532.22;5131726;28;20208;-59
2022/05/21 08:36:13;;;;;;;1.85;1.40;;;24.40;81.60;;;26.23;36.21;98534.28;5126338;28;20337;-57
2022/05/21 08:38:51;;;;;;;1.40;1.30;;;24.50;79.40;;;26.15;35.50;98525.50;5113154;28;20207;-54
2022/05/21 08:41:27;;;;;;;1.88;1.30;;;24.30;79.60;;;26.04;35.21;98526.31;5117615;28;20261;-56
2022/05/21 08:44:04;;;;;;;1.75;1.40;;;24.50;77.60;;;25.95;35.69;98521.00;5119413;28;20239;-57
2022/05/21 08:46:53;;;;;;;1.98;1.50;;;24.60;78.50;;;26.12;36.06;98521.09;5140149;28;20256;-59
2022/05/21 08:49:33;;;;;;;2.40;1.30;;;24.60;79.80;;;26.10;35.97;98519.34;5116217;28;20278;-57
2022/05/21 08:52:20;;;;;;;1.90;1.20;;;24.60;78.20;;;25.62;37.10;98530.34;5119556;28;20574;-55
2022/05/21 08:54:57;;;;;;;1.48;1.17;;;24.40;79.80;;;25.42;37.67;98520.59;5116677;28;20246;-60
2022/05/21 08:57:43;;;;;;;1.73;1.50;;;24.10;80.10;;;24.53;38.38;98525.75;5143674;28;20224;-55
2022/05/21 09:00:23;;;;;;;1.65;1.40;;;23.60;81.50;;;24.67;39.89;98518.94;5121832;28;20207;-52
2022/05/21 09:02:57;;;;;;;2.28;1.38;;;23.80;83.30;;;24.89;38.38;98512.19;5141815;28;21029;-55
2022/05/21 09:05:30;;;;;;;2.67;1.45;;;23.80;81.60;;;25.09;38.03;98512.41;5120679;28;20303;-57
2022/05/21 09:08:15;;;;;;;1.42;1.23;;;23.90;80.20;;;25.42;36.71;98513.63;5117509;28;20228;-60
2022/05/21 09:10:58;;;;;;;1.50;1.40;;;24.20;78.90;;;25.28;38.03;98518.72;5129127;28;20204;-59
2022/05/21 09:13:44;;;;;;;1.70;1.50;;;24.00;80.30;;;25.19;38.55;98515.16;5117997;28;20208;-54
2022/05/21 09:19:11;;;;;;;1.67;1.20;;;24.10;80.30;;;24.72;38.40;98509.44;5126641;28;20292;-53
2022/05/21 09:21:46;;;;;;;1.83;1.30;;;23.80;80.10;;;24.41;39.85;98517.69;5149758;28;20312;-56
2022/05/21 09:24:41;;;;;;;1.63;1.48;;;23.50;82.40;;;24.75;39.70;98512.91;5126566;28;20265;-56
2022/05/21 09:27:30;;;;;;;1.60;1.40;;;23.70;82.30;;;24.98;36.87;98514.06;5151430;28;20256;-54
2022/05/21 09:30:21;;;;;;;1.52;1.10;;;24.00;78.90;;;24.76;39.93;98507.72;5126446;28;20554;-55
2022/05/21 09:33:00;;;;;;;1.40;1.30;;;24.00;82.50;;;24.60;38.89;98505.78;5133307;28;20243;-55
2022/05/21 09:35:52;;;;;;;3.67;1.30;;;23.70;79.80;;;24.80;37.36;98511.22;5148343;28;20316;-55
2022/05/21 09:38:30;;;;;;;2.97;1.38;;;23.90;79.30;;;24.62;38.77;98510.16;5119213;28;20258;-58
2022/05/21 09:41:20;;;;;;;1.77;1.10;;;23.70;80.00;;;24.70;37.81;98502.41;5117377;28;20741;-55
2022/05/21 09:47:09;;;;;;;1.10;1.00;;;23.80;79.80;;;24.59;40.04;98494.44;5130503;28;20275;-54
2022/05/21 09:49:43;;;;;;;1.88;1.10;;;23.90;81.40;;;24.44;38.35;98496.88;5140109;28;20670;-58
2022/05/21 09:52:25;;;;;;;1.55;1.30;;;23.60;79.20;;;24.21;40.04;98497.44;5151410;28;20258;-56
2022/05/21 09:54:58;;;;;;;1.35;1.13;;;23.60;80.90;;;24.42;39.07;98485.50;5140521;28;20631;-55
2022/05/21 09:57:39;;;;;;;1.95;1.23;;;23.70;81.30;;;24.67;39.02;98491.94;5127383;28;20765;-53
2022/05/21 10:00:22;;;;;;;1.95;1.20;;;23.80;80.30;;;24.44;39.20;98491.66;5146545;28;20224;-52
2022/05/21 10:02:58;;;;;;;2.83;1.40;;;23.80;79.60;;;24.45;38.87;98488.19;5118651;28;20277;-56
2022/05/21 10:05:38;;;;;;;1.50;1.30;;;24.00;78.80;;;24.48;39.14;98485.59;5114372;28;20204;-56
2022/05/21 10:11:25;;;;;;;1.13;1.05;;;23.60;79.50;;;24.32;40.18;98484.50;5120527;28;20230;-62
2022/05/21 10:14:05;;;;;;;3.40;1.30;;;23.50;81.90;;;24.41;39.99;98491.56;5119148;28;20630;-57
2022/05/21 10:16:46;;;;;;;2.25;1.40;;;23.60;81.70;;;24.23;39.38;98481.78;5121391;28;20255;-58
2022/05/21 10:19:30;;;;;;;1.45;1.35;;;23.50;79.80;;;24.07;39.81;98479.84;5161362;28;20204;-52
2022/05/21 10:22:29;;;;;;;1.42;1.33;;;23.40;80.80;;;24.14;39.64;98487.75;5151935;28;20492;-56
2022/05/21 10:25:09;;;;;;;1.55;1.45;;;23.40;80.70;;;23.85;39.74;98481.25;5118563;28;20556;-60
2022/05/21 10:28:19;;;;;;;1.30;1.20;;;23.10;80.80;;;23.40;41.22;98477.94;5121641;28;20256;-56
2022/05/21 10:31:33;;;;;;;1.52;1.42;;;22.60;82.40;;;23.22;40.83;98473.28;5131687;28;20251;-59
2022/05/21 10:34:33;;;;;;;1.80;1.40;;;22.60;82.50;;;23.19;41.59;98482.81;5139981;28;20604;-54
2022/05/21 10:37:28;;;;;;;1.45;1.35;;;22.40;83.00;;;23.09;42.48;98479.16;5119854;28;20303;-53
2022/05/21 10:40:26;;;;;;;1.95;1.25;;;22.60;85.10;;;23.42;41.89;98467.53;5136635;28;20754;-59
2022/05/21 10:43:28;;;;;;;1.60;1.50;;;22.70;84.70;;;23.43;42.47;98469.28;5139113;28;20302;-55
2022/05/21 10:46:13;;;;;;;2.95;1.60;;;22.70;84.60;;;23.41;41.96;98464.06;5112197;28;20216;-59
2022/05/21 10:49:07;;;;;;;2.30;1.60;;;22.70;84.00;;;23.75;42.04;98457.63;5139266;28;20733;-56
2022/05/21 10:52:02;;;;;;;1.80;1.40;;;23.10;84.90;;;23.83;42.34;98450.75;5122855;28;20612;-57
2022/05/21 10:55:06;;;;;;;2.78;1.60;;;23.30;84.50;;;23.67;42.09;98463.56;5145732;28;20701;-56
2022/05/21 10:58:07;;;;;;;2.25;1.42;;;23.10;83.80;;;23.61;40.98;98446.09;5126759;28;21042;-59
2022/05/21 11:00:47;;;;;;;1.80;1.40;;;23.00;84.00;;;23.46;41.76;98451.06;5156094;28;20200;-64
2022/05/21 11:03:45;;;;;;;1.55;1.40;;;22.70;84.00;;;23.59;42.31;98445.19;5119975;28;20215;-56
2022/05/21 11:06:53;;;;;;;1.50;1.40;;;22.90;83.80;;;23.24;43.29;98440.31;5127071;28;20302;-56
2022/05/21 11:09:35;;;;;;;3.03;1.40;;;22.60;84.40;;;23.43;43.20;98437.97;5116944;28;20236;-63
2022/05/21 11:12:15;;;;;;;2.03;1.20;;;22.80;86.00;;;23.73;42.33;98432.38;5113623;28;20205;-55
2022/05/21 11:14:55;;;;;;;2.25;1.45;;;23.10;84.00;;;23.72;40.70;98427.97;5124487;28;20242;-52
2022/05/21 11:17:39;;;;;;;1.85;1.50;;;23.00;81.50;;;23.63;40.89;98430.44;5144220;28;20225;-63
2022/05/21 11:20:20;;;;;;;2.92;1.60;;;22.70;82.90;;;23.68;41.34;98424.41;5120537;28;20232;-60
2022/05/21 11:23:01;;;;;;;1.83;1.42;;;22.80;83.20;;;23.66;42.10;98423.50;5122090;28;20260;-55
2022/05/21 11:25:41;;;;;;;1.58;1.48;;;22.90;84.00;;;23.69;43.59;98428.78;5124699;28;20207;-61
2022/05/21 11:28:31;;;;;;;1.40;1.30;;;22.90;86.60;;;23.75;44.18;98441.06;5151413;28;20274;-55